createdAt,value
2022-12-31T00:01:51.615Z,8.38
2022-12-31T00:04:22.514Z,8.68
2022-12-31T00:06:53.196Z,8.54
2022-12-31T00:09:26.433Z,7.29
2022-12-31T00:11:56.904Z,6.06
2022-12-31T00:14:27.894Z,6.18
2022-12-31T00:16:58.396Z,7.31
2022-12-31T00:19:29.462Z,8.01
2022-12-31T00:22:00.140Z,8.43
2022-12-31T00:24:32.171Z,8.67
2022-12-31T00:27:03.613Z,7.64
2022-12-31T00:29:34.359Z,6.27
2022-12-31T00:32:04.869Z,5.81
2022-12-31T00:34:35.709Z,6.74
2022-12-31T00:37:06.429Z,7.66
2022-12-31T00:39:37.380Z,8.10
2022-12-31T00:42:07.912Z,8.44
2022-12-31T00:44:38.746Z,8.53
2022-12-31T00:47:09.291Z,7.52
2022-12-31T00:49:40.215Z,6.18
2022-12-31T00:52:13.900Z,5.59
2022-12-31T00:54:44.641Z,6.58
2022-12-31T00:57:15.481Z,7.56
2022-12-31T00:59:46.530Z,8.22
2022-12-31T01:02:17.154Z,8.69
2022-12-31T01:04:48.289Z,8.98
2022-12-31T01:07:19.464Z,8.13
2022-12-31T01:09:50.275Z,6.81
2022-12-31T01:12:21.113Z,6.19
2022-12-31T01:14:52.046Z,7.04
2022-12-31T01:17:22.644Z,7.96
2022-12-31T01:19:53.509Z,8.55
2022-12-31T01:22:23.974Z,8.66
2022-12-31T01:24:54.869Z,7.46
2022-12-31T01:27:25.570Z,6.19
2022-12-31T01:29:56.967Z,5.73
2022-12-31T01:32:27.700Z,6.72
2022-12-31T01:34:59.036Z,7.66
2022-12-31T01:37:29.664Z,8.37
2022-12-31T01:40:00.517Z,8.74
2022-12-31T01:42:31.239Z,8.69
2022-12-31T01:45:02.270Z,7.56
2022-12-31T01:47:38.333Z,6.44
2022-12-31T01:50:14.680Z,5.96
2022-12-31T01:52:47.481Z,7.00
2022-12-31T01:55:20.416Z,7.93
2022-12-31T01:57:54.316Z,8.41
2022-12-31T02:00:25.177Z,8.67
2022-12-31T02:02:56.394Z,7.71
2022-12-31T02:05:28.577Z,6.43
2022-12-31T02:08:00.490Z,6.32
2022-12-31T02:10:31.207Z,7.32
2022-12-31T02:13:01.954Z,8.05
2022-12-31T02:15:38.608Z,8.53
2022-12-31T02:18:14.546Z,7.75
2022-12-31T02:20:55.541Z,6.26
2022-12-31T02:23:40.485Z,5.65
2022-12-31T02:26:23.944Z,6.79
2022-12-31T02:29:08.516Z,7.66
2022-12-31T02:31:41.552Z,8.07
2022-12-31T02:34:14.885Z,8.31
2022-12-31T02:36:47.763Z,8.32
2022-12-31T02:39:18.678Z,7.69
2022-12-31T02:41:53.994Z,6.47
2022-12-31T02:44:26.153Z,5.90
2022-12-31T02:47:01.301Z,6.64
2022-12-31T02:49:35.068Z,7.38
2022-12-31T02:52:08.764Z,7.85
2022-12-31T02:54:45.428Z,8.31
2022-12-31T02:57:20.644Z,7.76
2022-12-31T03:00:10.452Z,6.20
2022-12-31T03:02:43.389Z,6.44
2022-12-31T03:05:15.103Z,7.08
2022-12-31T03:07:46.550Z,7.96
2022-12-31T03:10:17.269Z,7.87
2022-12-31T03:12:48.805Z,6.51
2022-12-31T03:15:23.866Z,5.30
2022-12-31T03:17:59.436Z,4.82
2022-12-31T03:20:49.280Z,5.84
2022-12-31T03:23:21.955Z,6.84
2022-12-31T03:25:53.505Z,7.72
2022-12-31T03:28:27.516Z,8.23
2022-12-31T03:30:59.043Z,7.78
2022-12-31T03:33:33.705Z,6.16
2022-12-31T03:36:06.227Z,5.81
2022-12-31T03:38:37.274Z,6.92
2022-12-31T03:41:10.519Z,7.44
2022-12-31T03:43:41.645Z,7.97
2022-12-31T03:46:12.685Z,8.25
2022-12-31T03:48:43.730Z,8.07
2022-12-31T03:51:14.261Z,6.93
2022-12-31T03:53:45.127Z,5.74
2022-12-31T03:56:15.933Z,6.46
2022-12-31T03:58:47.114Z,7.62
2022-12-31T04:01:18.041Z,8.17
2022-12-31T04:03:49.192Z,7.36
2022-12-31T04:06:19.677Z,6.19
2022-12-31T04:08:50.619Z,6.70
2022-12-31T04:11:21.366Z,7.52
2022-12-31T04:13:52.389Z,8.19
2022-12-31T04:16:23.061Z,8.77
2022-12-31T04:18:54.064Z,8.55
2022-12-31T04:21:26.855Z,7.03
2022-12-31T04:24:01.868Z,5.86
2022-12-31T04:26:32.505Z,5.39
2022-12-31T04:29:03.239Z,6.40
2022-12-31T04:31:34.768Z,7.48
2022-12-31T04:34:05.660Z,8.19
2022-12-31T04:36:36.563Z,8.62
2022-12-31T04:39:07.318Z,8.94
2022-12-31T04:41:37.932Z,8.07
2022-12-31T04:44:08.825Z,6.73
2022-12-31T04:46:39.395Z,5.70
2022-12-31T04:49:10.389Z,5.25
2022-12-31T04:51:41.184Z,6.24
2022-12-31T04:54:12.031Z,7.35
2022-12-31T04:56:42.529Z,8.05
2022-12-31T04:59:13.468Z,8.46
2022-12-31T05:01:44.119Z,8.88
2022-12-31T05:04:15.409Z,8.18
2022-12-31T05:06:45.883Z,6.91
2022-12-31T05:09:16.713Z,6.16
2022-12-31T05:11:47.339Z,6.88
2022-12-31T05:14:20.538Z,7.77
2022-12-31T05:16:51.430Z,8.40
2022-12-31T05:19:22.507Z,8.84
2022-12-31T05:22:06.856Z,8.81
2022-12-31T05:24:37.710Z,7.48
2022-12-31T05:27:08.191Z,6.29
2022-12-31T05:29:38.945Z,5.71
2022-12-31T05:32:09.588Z,6.63
2022-12-31T05:34:40.544Z,7.69
2022-12-31T05:37:12.291Z,8.41
2022-12-31T05:39:43.229Z,8.82
2022-12-31T05:42:13.861Z,8.56
2022-12-31T05:44:44.629Z,7.28
2022-12-31T05:47:15.223Z,6.12
2022-12-31T05:49:46.165Z,6.19
2022-12-31T05:52:18.024Z,7.18
2022-12-31T05:54:48.952Z,7.83
2022-12-31T05:57:19.585Z,8.34
2022-12-31T05:59:50.559Z,8.76
2022-12-31T06:02:21.395Z,8.71
2022-12-31T06:04:52.772Z,7.38
2022-12-31T06:07:23.331Z,6.11
2022-12-31T06:09:54.380Z,5.74
2022-12-31T06:12:25.411Z,7.07
2022-12-31T06:14:56.767Z,8.33
2022-12-31T06:17:27.516Z,8.58
2022-12-31T06:19:58.329Z,9.00
2022-12-31T06:22:29.454Z,8.07
2022-12-31T06:25:00.343Z,6.75
2022-12-31T06:27:30.949Z,7.36
2022-12-31T06:30:02.802Z,8.00
2022-12-31T06:32:35.139Z,8.50
2022-12-31T06:35:07.758Z,8.94
2022-12-31T06:37:38.243Z,9.15
2022-12-31T06:40:10.419Z,8.20
2022-12-31T06:42:42.503Z,6.99
2022-12-31T06:45:13.917Z,6.31
2022-12-31T06:47:44.420Z,7.12
2022-12-31T06:50:15.218Z,8.05
2022-12-31T06:52:45.756Z,8.73
2022-12-31T06:55:17.644Z,9.21
2022-12-31T06:57:48.516Z,9.55
2022-12-31T07:00:20.961Z,9.84
2022-12-31T07:03:15.836Z,9.11
2022-12-31T07:05:48.696Z,7.69
2022-12-31T07:08:26.982Z,6.82
2022-12-31T07:11:01.114Z,7.04
2022-12-31T07:13:42.888Z,8.20
2022-12-31T07:16:18.612Z,9.18
2022-12-31T07:18:52.117Z,9.91
2022-12-31T07:21:26.436Z,10.33
2022-12-31T07:23:57.544Z,9.89
2022-12-31T07:26:36.857Z,8.63
2022-12-31T07:29:12.099Z,8.13
2022-12-31T07:31:54.033Z,9.08
2022-12-31T07:34:27.778Z,9.95
2022-12-31T07:37:03.506Z,10.52
2022-12-31T07:39:40.366Z,10.66
2022-12-31T07:42:15.419Z,9.48
2022-12-31T07:44:51.718Z,9.52
2022-12-31T07:47:24.158Z,10.50
2022-12-31T07:49:55.485Z,11.18
2022-12-31T07:52:27.666Z,11.56
2022-12-31T07:54:58.277Z,11.83
2022-12-31T07:57:33.266Z,11.24
2022-12-31T08:00:07.703Z,10.25
2022-12-31T08:03:03.524Z,10.64
2022-12-31T08:05:36.344Z,11.14
2022-12-31T08:08:14.230Z,11.55
2022-12-31T08:10:49.012Z,11.93
2022-12-31T08:13:19.852Z,12.27
2022-12-31T08:15:51.624Z,12.70
2022-12-31T08:18:23.092Z,12.36
2022-12-31T08:20:57.910Z,11.04
2022-12-31T08:23:31.644Z,10.60
2022-12-31T08:26:07.397Z,11.55
2022-12-31T08:28:45.418Z,12.41
2022-12-31T08:31:17.967Z,12.66
2022-12-31T08:33:52.772Z,11.70
2022-12-31T08:36:28.443Z,10.81
2022-12-31T08:39:02.632Z,10.54
2022-12-31T08:41:42.265Z,11.71
2022-12-31T08:44:17.912Z,12.91
2022-12-31T08:46:51.101Z,12.82
2022-12-31T08:49:20.290Z,11.82
2022-12-31T08:51:51.569Z,11.02
2022-12-31T08:54:23.208Z,10.82
2022-12-31T08:56:58.733Z,11.92
2022-12-31T08:59:38.491Z,13.15
2022-12-31T09:02:21.819Z,13.94
2022-12-31T09:04:59.509Z,13.71
2022-12-31T09:07:34.027Z,12.53
2022-12-31T09:10:09.069Z,12.45
2022-12-31T09:12:42.872Z,13.27
2022-12-31T09:15:16.530Z,14.09
2022-12-31T09:17:47.901Z,14.15
2022-12-31T09:20:22.465Z,13.18
2022-12-31T09:22:53.990Z,12.37
2022-12-31T09:25:26.230Z,12.25
2022-12-31T09:28:04.484Z,13.35
2022-12-31T09:30:41.482Z,14.27
2022-12-31T09:33:14.038Z,13.56
2022-12-31T09:35:49.314Z,12.70
2022-12-31T09:38:22.290Z,12.81
2022-12-31T09:40:59.660Z,14.03
2022-12-31T09:43:48.634Z,14.78
2022-12-31T09:46:47.704Z,13.90
2022-12-31T09:49:39.124Z,13.87
2022-12-31T09:52:16.347Z,15.15
2022-12-31T09:54:53.506Z,14.90
2022-12-31T09:57:31.483Z,14.04
2022-12-31T10:00:04.290Z,15.11
2022-12-31T10:03:01.774Z,15.55
2022-12-31T10:05:52.289Z,14.59
2022-12-31T10:08:30.669Z,14.54
2022-12-31T10:11:05.020Z,15.84
2022-12-31T10:13:44.873Z,15.37
2022-12-31T10:16:35.267Z,14.60
2022-12-31T10:19:37.882Z,14.61
2022-12-31T10:22:15.530Z,16.12
2022-12-31T10:24:57.242Z,15.70
2022-12-31T10:27:36.883Z,14.78
2022-12-31T10:30:13.260Z,15.62
2022-12-31T10:32:46.073Z,15.87
2022-12-31T10:35:29.180Z,15.16
2022-12-31T10:38:04.658Z,14.68
2022-12-31T10:40:43.545Z,15.97
2022-12-31T10:43:32.377Z,15.62
2022-12-31T10:46:26.269Z,14.92
2022-12-31T10:49:05.379Z,15.19
2022-12-31T10:51:54.159Z,16.51
2022-12-31T10:54:41.688Z,16.22
2022-12-31T10:57:26.249Z,15.43
2022-12-31T11:00:10.513Z,15.13
2022-12-31T11:02:57.697Z,16.67
2022-12-31T11:05:39.694Z,16.73
2022-12-31T11:08:18.454Z,15.90
2022-12-31T11:10:58.108Z,15.27
2022-12-31T11:13:45.619Z,15.72
2022-12-31T11:16:30.030Z,16.86
2022-12-31T11:19:03.308Z,16.08
2022-12-31T11:21:41.829Z,15.48
2022-12-31T11:24:19.266Z,16.02
2022-12-31T11:26:58.402Z,16.74
2022-12-31T11:29:36.799Z,16.09
2022-12-31T11:32:15.526Z,15.44
2022-12-31T11:34:59.397Z,15.60
2022-12-31T11:37:32.666Z,17.16
2022-12-31T11:40:01.650Z,16.38
2022-12-31T11:42:41.393Z,15.61
2022-12-31T11:45:16.612Z,15.80
2022-12-31T11:50:48.848Z,16.01
2022-12-31T11:53:26.411Z,15.40
2022-12-31T11:56:02.373Z,15.86
2022-12-31T11:58:33.134Z,16.94
2022-12-31T12:01:06.783Z,16.41
2022-12-31T12:03:42.615Z,15.74
2022-12-31T12:06:14.891Z,15.19
2022-12-31T12:08:46.179Z,15.74
2022-12-31T12:11:20.186Z,16.65
2022-12-31T12:13:51.310Z,16.25
2022-12-31T12:16:23.098Z,15.50
2022-12-31T12:19:03.639Z,15.42
2022-12-31T12:21:35.180Z,16.52
2022-12-31T12:24:07.566Z,16.98
2022-12-31T12:26:39.128Z,16.32
2022-12-31T12:29:13.537Z,15.61
2022-12-31T12:31:55.249Z,15.18
2022-12-31T12:34:27.252Z,15.69
2022-12-31T12:36:58.436Z,16.58
2022-12-31T12:39:29.909Z,16.14
2022-12-31T12:42:08.504Z,15.64
2022-12-31T12:44:40.367Z,15.22
2022-12-31T12:47:15.470Z,15.41
2022-12-31T12:49:47.738Z,16.81
2022-12-31T12:52:28.247Z,16.78
2022-12-31T12:55:06.614Z,15.92
2022-12-31T12:57:45.426Z,15.34
2022-12-31T13:00:18.974Z,15.18
2022-12-31T13:03:06.036Z,16.51
2022-12-31T13:05:42.954Z,16.39
2022-12-31T13:08:22.085Z,15.71
2022-12-31T13:10:58.427Z,15.23
2022-12-31T13:13:34.983Z,15.28
2022-12-31T13:16:09.690Z,16.43
2022-12-31T13:18:48.324Z,16.48
2022-12-31T13:21:32.522Z,15.84
2022-12-31T13:24:08.164Z,15.27
2022-12-31T13:26:40.917Z,15.24
2022-12-31T13:29:14.883Z,16.21
2022-12-31T13:31:46.931Z,16.99
2022-12-31T13:34:19.895Z,16.31
2022-12-31T13:36:51.996Z,15.52
2022-12-31T13:39:26.001Z,15.06
2022-12-31T13:42:00.523Z,15.50
2022-12-31T13:44:36.261Z,16.61
2022-12-31T13:47:12.882Z,16.50
2022-12-31T13:49:45.440Z,15.68
2022-12-31T13:52:21.506Z,15.09
2022-12-31T13:54:56.913Z,15.36
2022-12-31T13:57:33.526Z,16.49
2022-12-31T14:00:05.637Z,17.34
2022-12-31T14:02:44.516Z,16.62
2022-12-31T14:05:18.322Z,15.64
2022-12-31T14:07:47.254Z,15.12
2022-12-31T14:10:21.057Z,15.72
2022-12-31T14:12:55.111Z,16.83
2022-12-31T14:15:30.775Z,16.92
2022-12-31T14:18:04.945Z,15.88
2022-12-31T14:20:43.235Z,15.17
2022-12-31T14:23:18.037Z,15.47
2022-12-31T14:25:50.637Z,16.56
2022-12-31T14:28:25.473Z,17.18
2022-12-31T14:30:58.148Z,16.50
2022-12-31T14:33:46.508Z,15.70
2022-12-31T14:36:29.245Z,15.25
2022-12-31T14:39:06.821Z,16.51
2022-12-31T14:41:44.724Z,16.59
2022-12-31T14:44:28.969Z,15.51
2022-12-31T14:47:04.842Z,15.06
2022-12-31T14:49:39.960Z,16.08
2022-12-31T14:52:20.797Z,17.00
2022-12-31T14:55:00.096Z,17.27
2022-12-31T14:58:01.575Z,16.38
2022-12-31T15:00:30.608Z,15.42
2022-12-31T15:03:02.991Z,14.82
2022-12-31T15:05:34.529Z,14.62
2022-12-31T15:08:20.823Z,15.65
2022-12-31T15:10:59.136Z,16.70
2022-12-31T15:13:38.259Z,16.74
2022-12-31T15:16:15.344Z,15.61
2022-12-31T15:18:56.879Z,15.01
2022-12-31T15:21:34.145Z,15.78
2022-12-31T15:24:13.464Z,16.65
2022-12-31T15:26:49.566Z,16.17
2022-12-31T15:29:31.158Z,15.20
2022-12-31T15:32:04.098Z,15.28
2022-12-31T15:34:36.048Z,16.20
2022-12-31T15:37:07.497Z,16.55
2022-12-31T15:39:44.663Z,15.62
2022-12-31T15:42:39.247Z,14.63
2022-12-31T15:45:17.328Z,14.76
2022-12-31T15:47:50.163Z,15.85
2022-12-31T15:50:22.750Z,16.58
2022-12-31T15:52:54.294Z,17.05
2022-12-31T15:55:27.205Z,16.76
2022-12-31T15:57:56.886Z,15.71
2022-12-31T16:00:30.731Z,14.84
2022-12-31T16:03:01.467Z,14.49
2022-12-31T16:05:35.450Z,15.48
2022-12-31T16:08:06.388Z,16.44
2022-12-31T16:10:37.320Z,17.01
2022-12-31T16:13:07.827Z,16.93
2022-12-31T16:15:38.945Z,15.96
2022-12-31T16:18:18.943Z,15.10
2022-12-31T16:20:55.192Z,14.42
2022-12-31T16:23:27.736Z,14.87
2022-12-31T16:26:01.269Z,16.02
2022-12-31T16:28:33.026Z,16.35
2022-12-31T16:31:04.942Z,15.52
2022-12-31T16:33:35.584Z,14.79
2022-12-31T16:36:06.803Z,15.51
2022-12-31T16:38:38.506Z,16.24
2022-12-31T16:41:16.212Z,16.52
2022-12-31T16:43:47.489Z,15.48
2022-12-31T16:46:20.627Z,14.77
2022-12-31T16:48:54.555Z,15.44
2022-12-31T16:51:28.863Z,16.18
2022-12-31T16:53:57.906Z,16.45
2022-12-31T16:56:32.290Z,15.73
2022-12-31T16:59:04.769Z,14.51
2022-12-31T17:01:36.891Z,14.11
2022-12-31T17:04:10.281Z,15.24
2022-12-31T17:06:41.392Z,16.19
2022-12-31T17:09:14.879Z,15.62
2022-12-31T17:11:50.514Z,14.53
2022-12-31T17:14:23.284Z,14.42
2022-12-31T17:17:02.809Z,15.48
2022-12-31T17:19:36.087Z,16.39
2022-12-31T17:22:10.130Z,16.19
2022-12-31T17:24:41.168Z,15.11
2022-12-31T17:27:12.210Z,14.81
2022-12-31T17:29:44.435Z,15.85
2022-12-31T17:32:32.036Z,16.47
2022-12-31T17:35:02.634Z,15.32
2022-12-31T17:37:33.267Z,14.78
2022-12-31T17:40:41.074Z,15.64
2022-12-31T17:42:54.635Z,16.01
2022-12-31T17:45:25.196Z,14.88
2022-12-31T17:47:59.947Z,15.35
2022-12-31T17:50:30.470Z,16.31
2022-12-31T17:53:03.767Z,15.61
2022-12-31T17:55:34.271Z,14.66
2022-12-31T17:58:06.190Z,15.33
2022-12-31T18:00:38.123Z,16.30
2022-12-31T18:03:09.213Z,15.82
2022-12-31T18:05:39.740Z,14.65
2022-12-31T18:08:10.675Z,15.10
2022-12-31T18:10:41.980Z,16.35
2022-12-31T18:13:15.868Z,15.88
2022-12-31T18:15:46.636Z,14.79
2022-12-31T18:18:25.193Z,14.29
2022-12-31T18:20:58.938Z,15.23
2022-12-31T18:23:31.685Z,15.98
2022-12-31T18:26:02.263Z,16.36
2022-12-31T18:28:33.422Z,15.35
2022-12-31T18:31:04.428Z,14.60
2022-12-31T18:33:35.980Z,15.23
2022-12-31T18:36:09.562Z,16.18
2022-12-31T18:38:41.603Z,16.33
2022-12-31T18:41:16.985Z,15.27
2022-12-31T18:43:48.189Z,14.81
2022-12-31T18:46:20.850Z,16.09
2022-12-31T18:48:51.841Z,16.06
2022-12-31T18:51:29.357Z,14.93
2022-12-31T18:54:03.366Z,15.02
2022-12-31T18:56:33.983Z,16.15
2022-12-31T18:59:04.925Z,15.53
2022-12-31T19:01:36.602Z,14.49
2022-12-31T19:04:13.177Z,14.89
2022-12-31T19:06:44.955Z,15.53
2022-12-31T19:09:43.493Z,16.10
2022-12-31T19:12:06.803Z,15.24
2022-12-31T19:14:37.583Z,14.54
2022-12-31T19:19:37.429Z,15.73
2022-12-31T19:22:11.026Z,16.10
2022-12-31T19:24:41.744Z,15.44
2022-12-31T19:27:17.113Z,14.47
2022-12-31T19:29:47.613Z,15.17
2022-12-31T19:32:18.900Z,16.24
2022-12-31T19:34:49.387Z,16.04
2022-12-31T19:37:20.628Z,14.79
2022-12-31T19:39:51.265Z,14.38
2022-12-31T19:42:22.609Z,15.59
2022-12-31T19:44:53.597Z,15.96
2022-12-31T19:47:25.095Z,15.04
2022-12-31T19:49:55.544Z,14.35
2022-12-31T19:52:26.467Z,14.74
2022-12-31T19:54:57.106Z,15.63
2022-12-31T19:57:27.930Z,15.92
2022-12-31T19:59:58.564Z,14.87
2022-12-31T20:02:29.839Z,14.37
2022-12-31T20:05:00.552Z,15.39
2022-12-31T20:07:31.716Z,15.93
2022-12-31T20:10:02.307Z,15.04
2022-12-31T20:12:35.649Z,14.33
2022-12-31T20:15:09.829Z,15.09
2022-12-31T20:17:40.967Z,16.08
2022-12-31T20:20:12.012Z,15.76
2022-12-31T20:22:42.953Z,14.67
2022-12-31T20:25:13.881Z,14.82
2022-12-31T20:27:44.925Z,15.98
2022-12-31T20:30:16.728Z,15.52
2022-12-31T20:32:47.927Z,14.48
2022-12-31T20:35:18.596Z,14.95
2022-12-31T20:37:49.496Z,16.08
2022-12-31T20:40:20.427Z,15.48
2022-12-31T20:42:52.406Z,14.39
2022-12-31T20:45:22.920Z,14.77
2022-12-31T20:47:54.265Z,15.87
2022-12-31T20:50:24.908Z,16.31
2022-12-31T20:52:56.045Z,15.48
2022-12-31T20:55:27.458Z,14.48
2022-12-31T20:57:58.328Z,14.61
2022-12-31T21:00:28.883Z,15.62
2022-12-31T21:03:10.456Z,15.98
2022-12-31T21:05:50.210Z,15.16
2022-12-31T21:08:21.946Z,14.34
2022-12-31T21:10:52.681Z,14.06
2022-12-31T21:13:24.564Z,15.10
2022-12-31T21:15:55.364Z,16.09
2022-12-31T21:18:26.491Z,16.44
2022-12-31T21:20:57.164Z,15.66
2022-12-31T21:23:27.940Z,14.82
2022-12-31T21:25:58.619Z,14.16
2022-12-31T21:28:29.755Z,14.01
2022-12-31T21:31:00.493Z,15.06
2022-12-31T21:33:31.649Z,15.97
2022-12-31T21:36:04.755Z,16.23
2022-12-31T21:38:38.294Z,15.35
2022-12-31T21:41:33.305Z,14.50
2022-12-31T21:44:05.076Z,14.07
2022-12-31T21:46:35.656Z,15.04
2022-12-31T21:49:07.002Z,15.89
2022-12-31T21:51:58.167Z,15.19
2022-12-31T21:54:47.023Z,14.14
2022-12-31T21:57:17.508Z,14.54
2022-12-31T22:00:39.821Z,15.65
2022-12-31T22:03:14.825Z,14.64
2022-12-31T22:05:50.664Z,13.78
2022-12-31T22:08:21.679Z,14.69
2022-12-31T22:10:53.241Z,15.52
2022-12-31T22:13:24.437Z,14.82
2022-12-31T22:16:01.760Z,13.89
2022-12-31T22:18:38.633Z,14.39
2022-12-31T22:21:17.837Z,15.70
2022-12-31T22:23:51.110Z,15.14
2022-12-31T22:26:23.721Z,14.10
2022-12-31T22:28:59.082Z,13.99
2022-12-31T22:31:31.333Z,15.02
2022-12-31T22:34:02.278Z,15.67
2022-12-31T22:36:33.236Z,15.02
2022-12-31T22:39:03.696Z,14.28
2022-12-31T22:41:35.253Z,14.21
2022-12-31T22:44:05.997Z,15.37
2022-12-31T22:46:37.378Z,15.90
2022-12-31T22:49:08.071Z,15.01
2022-12-31T22:51:56.549Z,14.23
2022-12-31T22:54:27.970Z,14.23
2022-12-31T22:56:59.214Z,15.62
2022-12-31T22:59:29.742Z,15.43
2022-12-31T23:02:01.096Z,14.68
2022-12-31T23:04:31.782Z,14.05
2022-12-31T23:07:02.609Z,14.83
2022-12-31T23:09:51.004Z,15.61
2022-12-31T23:12:22.093Z,15.03
2022-12-31T23:15:10.319Z,14.42
2022-12-31T23:17:59.041Z,13.91
2022-12-31T23:20:47.512Z,14.21
2022-12-31T23:23:18.844Z,15.69
2022-12-31T23:25:50.615Z,15.19
2022-12-31T23:28:25.081Z,14.58
2022-12-31T23:30:55.753Z,14.15
2022-12-31T23:33:27.303Z,13.92
2022-12-31T23:36:04.795Z,15.04
2022-12-31T23:38:35.931Z,15.82
2022-12-31T23:41:13.822Z,15.27
2022-12-31T23:43:45.612Z,14.63
2022-12-31T23:46:17.199Z,14.17
2022-12-31T23:48:48.188Z,13.84
2022-12-31T23:51:18.713Z,13.94
2022-12-31T23:53:50.059Z,15.28
2022-12-31T23:56:23.734Z,15.91
2022-12-31T23:58:56.645Z,15.23
